Van Nuys, CA (91409)

12:26 PM PDT on July 24, 2016 (GMT -0700)
South Northridge | | Change Station

Elev 781 ft 34.21 °N, 118.51 °W | Updated 6 seconds ago

Smoke
Smoke
91.9 °F
Feels Like 91 °F
N
0.0
Wind Variable Wind from WSW
Gusts 0.0 mph

Today
High -- | Low -- °F
--% Chance of Precip.
Yesterday
High -- | Low -- °F
Precip. -- in
Pressure 29.91 in
Visibility 10.0 miles
Clouds Clear
Heat Index 91 °F
Dew Point 57 °F
Humidity 31%
Rainfall 0.00 in
Snow Depth Not available.
5:59 AM 8:00 PM
Waning Gibbous, 74% visible
METAR KVNY 241851Z 12010KT 10SM FU CLR 32/16 A2994 RMK AO2 SLP126 T03170161
Pressure 29.91 in
Visibility 10.0 miles
Clouds Clear
Heat Index 91 °F
Dew Point 57 °F
Humidity 31%
Rainfall 0.00 in
Snow Depth Not available.
5:59 AM 8:00 PM
Waning Gibbous, 74% visible
METAR KVNY 241851Z 12010KT 10SM FU CLR 32/16 A2994 RMK AO2 SLP126 T03170161

10-Day Weather Forecast

Almanac

Astronomy

Jul. 24, 2016 Rise Set
Actual Time
Civil Twilight
Nautical Twilight
Astronomical Twilight
Moon
Length of Visible Light
Length of Day
Tomorrow will be .
, % of the Moon is Illuminated

Today's Extremes

State Highs State Lows

Community

WunderPhotos

Upload Photos

1,927,172 photos uploaded!

WunderBlog® & News

Nearby

Air Quality

  Air Quality AQ Index Pollutant
Not available.

Snow Depth

Station Depth Elevation

Earthquake Activity

City Distance Mag. Time & Date
Minimum magnitude displayed is 2.5.

Coastal Water Temperatures

Place Temperature

Stations

Nearby Weather Stations

Station Location Temp. Windchill Dew Point Humidity Wind Precip. Elev Updated Type
                   

Watches & Warnings

There are currently no watches in effect.